Time;durP1;ratioP1;P1;durP2;ratioP2;P2;SDS_P1;SDS_P2;PMS_P1;PMS_P2;Temp;Humidity;BMP_temperature;BMP_pressure;BME280_temperature;BME280_humidity;BME280_pressure;Samples;Min_cycle;Max_cycle;Signal;HPM_P1;HPM_P2
2022/06/25 00:00:27;;;;;;;3.70;3.30;;;20.30;71.50;;;;;;10327760;28;20224;-84
2022/06/25 00:05:49;;;;;;;4.95;3.35;;;20.30;99.90;;;;;;10309443;28;20235;-77
2022/06/25 00:12:31;;;;;;;5.50;3.55;;;20.20;99.90;;;;;;10327535;28;20194;-79
2022/06/25 00:16:52;;;;;;;3.63;3.08;;;20.20;99.90;;;;;;10297346;28;20246;-79
2022/06/25 00:22:14;;;;;;;3.80;3.40;;;20.10;99.90;;;;;;10320236;28;20473;-78
2022/06/25 00:27:35;;;;;;;4.38;3.80;;;20.10;99.90;;;;;;10279541;29;20243;-80
2022/06/25 00:32:57;;;;;;;4.57;3.35;;;20.00;99.90;;;;;;10282184;28;20234;-82
2022/06/25 00:38:19;;;;;;;4.05;3.30;;;20.00;99.90;;;;;;10302996;28;20222;-82
2022/06/25 00:43:41;;;;;;;4.93;3.20;;;19.90;99.90;;;;;;10306637;28;20418;-81
2022/06/25 00:49:03;;;;;;;5.10;3.33;;;19.80;99.90;;;;;;10329198;28;20198;-80
2022/06/25 00:54:28;;;;;;;5.93;3.50;;;19.80;99.90;;;;;;10345720;28;20527;-80
2022/06/25 00:59:52;;;;;;;3.63;3.30;;;19.70;99.90;;;;;;10305165;28;20222;-82
2022/06/25 01:05:15;;;;;;;4.38;3.60;;;19.70;99.90;;;;;;10304113;28;20249;-79
2022/06/25 01:10:37;;;;;;;6.10;3.80;;;19.60;99.90;;;;;;10304507;28;20195;-80
2022/06/25 01:15:59;;;;;;;6.82;3.67;;;;;;;;;;10292863;28;20225;-82
2022/06/25 01:21:20;;;;;;;4.30;3.80;;;19.50;99.90;;;;;;10300841;28;20225;-79
2022/06/25 01:26:42;;;;;;;4.10;3.30;;;19.50;99.90;;;;;;10287729;28;20204;-83
2022/06/25 01:32:04;;;;;;;5.78;3.70;;;19.50;99.90;;;;;;10316880;28;20253;-82
2022/06/25 01:37:25;;;;;;;6.00;3.63;;;19.50;99.90;;;;;;10303388;28;20388;-81
2022/06/25 01:42:59;;;;;;;4.00;3.15;;;19.50;99.90;;;;;;10317638;28;20198;-80
2022/06/25 01:48:20;;;;;;;3.03;2.72;;;19.50;99.90;;;;;;10356159;28;20194;-82
2022/06/25 01:53:43;;;;;;;5.15;3.40;;;19.40;99.90;;;;;;10320926;28;20457;-83
2022/06/25 01:59:05;;;;;;;6.15;3.45;;;19.40;1.00;;;;;;10302754;28;20229;-82
2022/06/25 02:04:27;;;;;;;4.07;3.30;;;19.30;1.00;;;;;;10286210;28;20201;-84
2022/06/25 02:09:48;;;;;;;4.13;3.22;;;19.30;1.00;;;;;;10303480;28;20389;-79
2022/06/25 02:15:10;;;;;;;3.30;3.00;;;19.30;1.00;;;;;;10297186;28;20201;-83
2022/06/25 02:20:31;;;;;;;4.35;3.10;;;19.30;1.00;;;;;;10306758;28;20272;-82
2022/06/25 02:25:53;;;;;;;4.78;3.17;;;19.30;1.00;;;;;;10301550;28;20274;-83
2022/06/25 02:31:14;;;;;;;5.60;2.92;;;19.20;99.90;;;;;;10301472;28;20236;-84
2022/06/25 02:36:35;;;;;;;3.83;3.30;;;19.20;99.90;;;;;;10288018;28;20281;-82
2022/06/25 02:42:01;;;;;;;4.53;3.97;;;19.20;99.90;;;;;;10301254;28;20293;-81
2022/06/25 02:47:23;;;;;;;4.95;4.10;;;19.10;99.90;;;;;;10346132;28;20535;-83
2022/06/25 02:52:56;;;;;;;5.13;4.32;;;19.10;99.90;;;;;;10347587;28;20190;-81
2022/06/25 03:04:00;;;;;;;7.93;4.65;;;19.10;99.90;;;;;;10284026;28;20203;-81
2022/06/25 03:09:23;;;;;;;6.43;4.82;;;19.10;1.00;;;;;;10300629;28;20198;-79
2022/06/25 03:14:45;;;;;;;7.05;4.93;;;19.10;99.90;;;;;;10283985;28;20367;-81
2022/06/25 03:20:07;;;;;;;9.20;5.82;;;19.10;99.90;;;;;;10282734;28;20428;-81
2022/06/25 03:25:39;;;;;;;10.27;5.70;;;19.10;1.00;;;;;;10300154;28;20270;-83
2022/06/25 03:31:00;;;;;;;8.75;5.47;;;19.10;1.00;;;;;;10270681;28;20468;-79
2022/06/25 03:36:48;;;;;;;7.47;5.57;;;19.10;1.00;;;;;;10299975;28;20241;-80
2022/06/25 03:42:11;;;;;;;8.35;5.75;;;19.10;1.00;;;;;;10301294;28;20249;-84
2022/06/25 03:47:50;;;;;;;6.22;4.85;;;19.10;1.00;;;;;;10333714;28;20193;-81
2022/06/25 03:53:13;;;;;;;7.72;5.13;;;19.20;1.00;;;;;;10352291;28;20201;-83
2022/06/25 03:58:34;;;;;;;8.45;4.95;;;19.30;99.90;;;;;;10307413;28;20238;-79
2022/06/25 04:03:56;;;;;;;9.70;5.15;;;19.30;99.90;;;;;;10295856;28;20194;-81
2022/06/25 04:09:19;;;;;;;7.13;4.57;;;19.30;99.90;;;;;;10267345;29;20202;-83
2022/06/25 04:14:42;;;;;;;8.50;4.03;;;19.30;99.90;;;;;;10280108;28;20229;-83
2022/06/25 04:20:04;;;;;;;5.97;4.13;;;19.30;99.90;;;;;;10293017;28;20241;-84
2022/06/25 04:25:25;;;;;;;6.20;4.53;;;19.40;99.90;;;;;;10305864;28;20206;-83
2022/06/25 04:30:47;;;;;;;5.43;4.20;;;19.40;99.90;;;;;;10306184;28;20241;-82
2022/06/25 04:36:09;;;;;;;8.20;4.22;;;19.50;1.00;;;;;;10305772;28;20190;-82
2022/06/25 04:41:37;;;;;;;5.18;3.70;;;19.50;1.00;;;;;;10289954;28;20424;-84
2022/06/25 04:47:05;;;;;;;4.32;3.85;;;19.60;1.00;;;;;;10331141;28;20190;-83
2022/06/25 04:52:42;;;;;;;7.43;4.35;;;19.80;99.90;;;;;;10329520;28;20213;-81
2022/06/25 04:58:04;;;;;;;6.38;4.38;;;19.80;99.90;;;;;;10321128;28;20198;-82
2022/06/25 05:03:34;;;;;;;6.00;4.00;;;19.80;99.90;;;;;;10319021;28;20210;-84
2022/06/25 05:09:05;;;;;;;9.57;4.15;;;19.90;99.90;;;;;;10278215;29;20275;-84
2022/06/25 05:14:27;;;;;;;7.82;4.10;;;19.90;99.90;;;;;;10273743;28;20201;-82
2022/06/25 05:19:50;;;;;;;5.60;3.90;;;20.00;99.90;;;;;;10303929;28;20237;-84
2022/06/25 05:25:12;;;;;;;13.75;4.32;;;20.20;99.90;;;;;;10287679;28;20201;-84
2022/06/25 05:30:35;;;;;;;6.32;3.85;;;20.30;99.90;;;;;;10274371;28;20285;-80
2022/06/25 05:35:56;;;;;;;7.15;4.00;;;20.40;99.90;;;;;;10303437;28;20229;-80
2022/06/25 05:41:17;;;;;;;9.80;4.70;;;20.50;99.90;;;;;;10317904;28;20222;-80
2022/06/25 05:46:39;;;;;;;5.63;3.70;;;20.70;1.00;;;;;;10328498;28;20221;-80
2022/06/25 05:52:00;;;;;;;6.28;4.30;;;20.80;1.00;;;;;;10357583;28;20506;-79
2022/06/25 05:57:22;;;;;;;6.82;3.65;;;21.10;1.00;;;;;;10311125;28;20212;-83
2022/06/25 06:02:44;;;;;;;4.90;4.40;;;21.30;1.00;;;;;;10317075;28;20447;-81
2022/06/25 06:08:08;;;;;;;5.38;3.75;;;21.60;99.90;;;;;;10294091;28;20201;-78
2022/06/25 06:13:29;;;;;;;4.75;4.20;;;21.80;99.90;;;;;;10315392;28;20261;-78
2022/06/25 06:18:51;;;;;;;8.55;4.10;;;21.90;1.00;;;;;;10285484;28;20242;-78
2022/06/25 06:24:12;;;;;;;6.90;3.70;;;22.00;1.00;;;;;;10315863;28;20544;-78
2022/06/25 06:29:33;;;;;;;6.35;4.10;;;22.20;1.00;;;;;;10298842;28;20202;-82
2022/06/25 06:34:54;;;;;;;5.45;3.25;;;22.60;99.90;;;;;;10298481;28;20221;-84
2022/06/25 06:40:16;;;;;;;5.50;3.85;;;23.10;1.00;;;;;;10301335;28;20222;-80
2022/06/25 06:45:37;;;;;;;8.32;3.67;;;23.50;1.00;;;;;;10316273;28;20527;-81
2022/06/25 06:50:58;;;;;;;6.63;3.53;;;24.10;99.90;;;;;;10284941;28;20273;-79
2022/06/25 06:56:20;;;;;;;6.45;3.75;;;24.80;99.90;;;;;;10300930;28;20218;-80
2022/06/25 07:01:42;;;;;;;4.68;3.40;;;25.10;44.20;;;;;;10298348;28;20222;-83
2022/06/25 07:07:04;;;;;;;9.02;3.97;;;25.70;1.00;;;;;;10315436;28;20218;-80
2022/06/25 07:12:25;;;;;;;4.88;3.50;;;26.30;99.90;;;;;;10327356;28;20232;-78
2022/06/25 07:17:47;;;;;;;8.73;3.75;;;26.70;1.00;;;;;;10314355;28;20244;-83
2022/06/25 07:23:08;;;;;;;6.22;3.22;;;27.10;99.90;;;;;;10314846;28;20236;-79
2022/06/25 07:28:30;;;;;;;4.82;3.60;;;27.80;44.60;;;;;;10303660;28;20398;-80
2022/06/25 07:33:52;;;;;;;6.55;3.67;;;28.30;1.00;;;;;;10322454;28;20230;-81
2022/06/25 07:39:13;;;;;;;4.20;3.58;;;28.30;1.00;;;;;;10267928;29;20611;-81
2022/06/25 07:44:34;;;;;;;8.02;3.33;;;28.60;1.00;;;;;;10295156;28;20190;-80
2022/06/25 07:55:35;;;;;;;4.85;3.42;;;29.40;99.90;;;;;;10305691;28;20198;-83
2022/06/25 08:00:57;;;;;;;6.60;3.33;;;29.40;99.90;;;;;;10322016;28;20222;-84
2022/06/25 08:06:18;;;;;;;7.25;3.20;;;29.80;99.90;;;;;;10320945;28;20244;-78
2022/06/25 08:11:40;;;;;;;4.07;3.10;;;30.30;99.90;;;;;;10321959;28;20194;-80
2022/06/25 08:17:01;;;;;;;8.48;3.10;;;30.40;99.90;;;;;;10306408;28;20232;-80
2022/06/25 08:22:23;;;;;;;8.23;3.10;;;30.50;99.90;;;;;;10320790;28;20301;-80
2022/06/25 08:27:50;;;;;;;4.22;2.90;;;30.70;99.90;;;;;;10306536;28;20195;-79
2022/06/25 08:33:11;;;;;;;5.40;3.63;;;31.00;99.90;;;;;;10307943;28;20227;-77
2022/06/25 08:38:33;;;;;;;7.30;3.13;;;31.20;99.90;;;;;;10311276;28;20206;-76
2022/06/25 08:43:55;;;;;;;5.47;3.30;;;31.50;97.90;;;;;;10330942;28;20190;-79
2022/06/25 08:49:18;;;;;;;3.17;2.78;;;31.40;64.40;;;;;;10369710;28;20221;-76
2022/06/25 08:54:40;;;;;;;5.20;2.92;;;31.40;52.70;;;;;;10334902;28;20194;-79
2022/06/25 09:00:03;;;;;;;5.32;3.40;;;31.70;34.60;;;;;;10319287;28;20227;-79
2022/06/25 09:05:26;;;;;;;6.93;3.10;;;31.80;11.50;;;;;;10304554;28;20391;-78
2022/06/25 09:10:53;;;;;;;2.83;2.35;;;32.30;7.00;;;;;;10326126;28;20194;-77
2022/06/25 09:16:24;;;;;;;3.67;2.58;;;32.20;1.00;;;;;;10300391;28;20254;-77
2022/06/25 09:21:46;;;;;;;3.33;2.50;;;32.10;1.00;;;;;;10288508;29;20223;-78
2022/06/25 09:27:08;;;;;;;4.28;2.35;;;32.30;1.00;;;;;;10307501;28;20187;-78
2022/06/25 09:32:45;;;;;;;4.55;2.13;;;32.20;1.00;;;;;;10310108;28;20238;-76
2022/06/25 09:38:16;;;;;;;8.70;3.17;;;31.90;1.00;;;;;;10320063;28;20194;-74
2022/06/25 09:43:41;;;;;;;7.80;2.80;;;32.40;1.00;;;;;;10292599;28;20257;-80
2022/06/25 09:49:21;;;;;;;3.42;2.03;;;32.70;1.00;;;;;;10360553;28;20370;-85
2022/06/25 09:54:42;;;;;;;7.55;2.70;;;32.70;1.00;;;;;;10344710;28;20225;-78
2022/06/25 10:00:04;;;;;;;5.32;2.15;;;32.40;1.00;;;;;;10322814;28;20218;-82
2022/06/25 10:05:38;;;;;;;2.92;2.17;;;32.60;1.00;;;;;;10321322;28;20290;-80
2022/06/25 10:11:03;;;;;;;3.85;2.60;;;32.90;1.00;;;;;;10304307;28;20573;-82
2022/06/25 10:16:29;;;;;;;3.95;2.42;;;32.80;1.00;;;;;;10291675;28;20213;-83
2022/06/25 10:21:51;;;;;;;3.42;2.75;;;33.00;1.00;;;;;;10279881;28;20269;-82
2022/06/25 10:27:13;;;;;;;2.17;1.95;;;33.50;1.00;;;;;;10319914;28;20497;-77
2022/06/25 10:32:55;;;;;;;2.53;1.88;;;34.10;1.00;;;;;;10275869;29;20234;-79
2022/06/25 10:38:21;;;;;;;9.15;2.50;;;33.70;1.00;;;;;;10237748;29;20199;-79
2022/06/25 10:43:49;;;;;;;4.25;1.63;;;33.90;1.00;;;;;;10265725;28;20226;-83
2022/06/25 10:49:19;;;;;;;1.95;1.70;;;33.30;1.00;;;;;;10301757;28;20513;-83
2022/06/25 10:54:40;;;;;;;3.03;2.10;;;33.30;1.00;;;;;;10292031;28;20202;-82
2022/06/25 11:00:03;;;;;;;5.85;2.10;;;33.00;1.00;;;;;;10275740;28;20223;-84
2022/06/25 11:05:25;;;;;;;3.00;2.00;;;33.00;1.00;;;;;;10274383;28;20278;-82
2022/06/25 11:10:46;;;;;;;3.92;2.47;;;32.60;1.00;;;;;;10284448;28;20260;-82
2022/06/25 11:16:16;;;;;;;3.17;2.40;;;32.90;1.00;;;;;;10285498;28;20195;-84
2022/06/25 11:21:42;;;;;;;3.80;2.17;;;33.30;1.00;;;;;;10275935;28;20237;-81
2022/06/25 11:32:45;;;;;;;3.65;2.05;;;33.10;1.00;;;;;;10300906;28;20245;-78
2022/06/25 11:38:18;;;;;;;3.90;2.00;;;33.30;1.00;;;;;;10314225;28;20194;-85
2022/06/25 11:43:39;;;;;;;2.55;2.22;;;33.40;1.00;;;;;;10300682;28;20273;-83
2022/06/25 11:49:04;;;;;;;6.60;2.40;;;33.40;1.00;;;;;;10330753;28;20198;-81
2022/06/25 11:54:26;;;;;;;4.25;2.50;;;33.70;1.00;;;;;;10314255;28;20206;-79
2022/06/25 11:59:49;;;;;;;3.17;2.30;;;33.30;1.00;;;;;;10314745;28;20249;-83
2022/06/25 12:05:11;;;;;;;8.85;2.53;;;33.20;1.00;;;;;;10315865;28;20497;-81
2022/06/25 12:10:33;;;;;;;6.32;2.38;;;33.30;1.00;;;;;;10314182;28;20442;-80
2022/06/25 12:15:59;;;;;;;4.95;2.50;;;33.10;1.00;;;;;;10309318;28;20234;-80
2022/06/25 12:21:21;;;;;;;7.25;2.95;;;33.10;1.00;;;;;;10286830;28;20269;-82
2022/06/25 12:26:51;;;;;;;6.45;2.78;;;32.60;1.00;;;;;;10320916;28;20223;-83
2022/06/25 12:32:12;;;;;;;5.88;2.53;;;32.90;1.00;;;;;;10320305;28;20293;-79
2022/06/25 12:37:33;;;;;;;4.80;2.97;;;33.10;1.00;;;;;;10303011;28;20203;-81
2022/06/25 12:42:57;;;;;;;5.20;2.70;;;32.90;1.00;;;;;;10269342;28;20239;-81
2022/06/25 12:48:32;;;;;;;3.00;2.70;;;33.10;1.00;;;;;;10342111;28;20194;-81
2022/06/25 12:53:55;;;;;;;5.97;3.25;;;32.90;1.00;;;;;;10328984;28;20196;-86
2022/06/25 12:59:17;;;;;;;3.30;2.50;;;32.80;1.00;;;;;;10329317;28;20441;-82
2022/06/25 13:04:38;;;;;;;3.20;2.58;;;32.70;1.00;;;;;;10319222;28;20191;-80
2022/06/25 13:10:00;;;;;;;5.60;2.58;;;32.70;1.00;;;;;;10318995;28;20187;-79
2022/06/25 13:15:23;;;;;;;3.35;2.50;;;32.60;1.00;;;;;;10286943;28;20195;-80
2022/06/25 13:20:46;;;;;;;5.85;2.85;;;32.60;1.00;;;;;;10296285;28;20607;-80
2022/06/25 13:26:08;;;;;;;2.97;2.45;;;32.60;1.00;;;;;;10318599;28;20198;-79
2022/06/25 13:31:30;;;;;;;3.35;2.47;;;32.60;1.00;;;;;;10319516;28;20241;-81
2022/06/25 13:36:52;;;;;;;7.90;2.70;;;32.80;1.00;;;;;;10248332;29;20476;-83
2022/06/25 13:42:13;;;;;;;4.70;2.30;;;32.40;1.00;;;;;;10276985;29;20230;-83
2022/06/25 13:47:36;;;;;;;4.90;2.20;;;32.20;1.00;;;;;;10341316;28;20384;-81
2022/06/25 13:52:57;;;;;;;2.88;2.08;;;32.40;1.00;;;;;;10325762;28;20199;-81
2022/06/25 13:58:19;;;;;;;2.70;2.33;;;32.20;1.00;;;;;;10317617;28;20264;-79
2022/06/25 14:03:40;;;;;;;4.15;2.38;;;32.00;1.00;;;;;;10316496;28;20374;-83
2022/06/25 14:09:12;;;;;;;4.00;2.45;;;31.80;1.00;;;;;;10315981;28;20195;-80
2022/06/25 14:14:33;;;;;;;8.23;2.83;;;31.60;1.00;;;;;;10299909;28;20203;-84
2022/06/25 14:19:54;;;;;;;2.75;2.30;;;31.50;1.00;;;;;;10316716;28;20428;-80
2022/06/25 14:25:24;;;;;;;7.97;2.85;;;31.40;1.00;;;;;;10316729;28;20194;-84
2022/06/25 14:30:45;;;;;;;7.32;2.22;;;31.20;1.00;;;;;;10316094;28;20417;-84
2022/06/25 14:47:27;;;;;;;5.03;2.67;;;30.90;1.00;;;;;;10329651;28;20233;-82
2022/06/25 14:52:48;;;;;;;3.25;2.45;;;30.70;1.00;;;;;;10338722;28;20201;-78
2022/06/25 14:58:10;;;;;;;4.25;2.30;;;30.70;1.00;;;;;;10301796;28;20193;-78
2022/06/25 15:03:34;;;;;;;4.18;2.60;;;30.50;1.00;;;;;;10315205;28;20222;-78
2022/06/25 15:08:56;;;;;;;4.75;2.65;;;30.40;1.00;;;;;;10300069;28;20231;-78
2022/06/25 15:14:19;;;;;;;6.18;2.60;;;30.30;1.00;;;;;;10323479;28;20195;-78
2022/06/25 15:19:41;;;;;;;4.53;2.72;;;30.30;1.00;;;;;;10325648;28;20225;-78
2022/06/25 15:25:03;;;;;;;4.30;2.40;;;30.30;1.00;;;;;;10315389;28;20416;-77
2022/06/25 15:30:24;;;;;;;4.20;2.75;;;30.30;1.00;;;;;;10314682;28;20227;-80
2022/06/25 15:35:45;;;;;;;3.90;2.10;;;30.30;1.00;;;;;;10314573;28;20217;-80
2022/06/25 15:41:08;;;;;;;2.92;2.20;;;30.20;1.00;;;;;;10314574;28;20222;-77
2022/06/25 15:46:29;;;;;;;8.48;2.67;;;30.00;1.00;;;;;;10308507;28;20195;-80
2022/06/25 15:51:51;;;;;;;2.90;2.55;;;29.70;1.00;;;;;;10289060;28;20249;-78
2022/06/25 15:57:12;;;;;;;3.95;2.50;;;29.50;1.00;;;;;;10307643;28;20270;-84
2022/06/25 16:02:33;;;;;;;4.28;2.60;;;29.50;1.00;;;;;;10307194;28;20225;-79
2022/06/25 16:07:56;;;;;;;2.80;2.45;;;29.50;1.00;;;;;;10317844;28;20206;-78
2022/06/25 16:13:17;;;;;;;3.42;2.58;;;29.30;1.00;;;;;;10306464;28;20478;-78
2022/06/25 16:18:39;;;;;;;3.58;2.70;;;29.30;1.00;;;;;;10284752;28;20469;-78
2022/06/25 16:24:02;;;;;;;4.63;2.50;;;29.10;1.00;;;;;;10303573;28;20273;-77
2022/06/25 16:29:23;;;;;;;3.03;2.25;;;29.00;1.00;;;;;;10305970;28;20267;-80
2022/06/25 16:34:45;;;;;;;4.38;2.50;;;29.00;1.00;;;;;;10303132;28;20278;-78
2022/06/25 16:40:06;;;;;;;7.47;2.53;;;28.90;1.00;;;;;;10320095;28;20282;-79
2022/06/25 16:45:28;;;;;;;3.45;2.65;;;28.80;1.00;;;;;;10304272;28;20194;-78
2022/06/25 16:50:49;;;;;;;5.32;3.13;;;28.80;1.00;;;;;;10305677;28;20186;-80
2022/06/25 16:56:12;;;;;;;4.97;2.90;;;28.70;1.00;;;;;;10305825;28;20214;-80
2022/06/25 17:01:33;;;;;;;3.20;2.60;;;28.60;1.00;;;;;;10318887;28;20237;-79
2022/06/25 17:06:55;;;;;;;2.60;2.40;;;28.60;1.00;;;;;;10301867;28;20194;-80
2022/06/25 17:12:33;;;;;;;3.08;2.78;;;28.50;1.00;;;;;;10319259;28;20195;-79
2022/06/25 17:17:55;;;;;;;7.63;2.95;;;28.60;1.00;;;;;;10300729;28;20213;-77
2022/06/25 17:23:16;;;;;;;6.18;3.10;;;28.50;1.00;;;;;;10318879;28;20241;-79
2022/06/25 17:28:39;;;;;;;5.20;3.08;;;28.50;1.00;;;;;;10318298;28;20505;-79
2022/06/25 17:34:00;;;;;;;4.05;2.60;;;28.60;1.00;;;;;;10303537;28;20258;-78
2022/06/25 17:39:21;;;;;;;2.75;2.55;;;28.40;1.00;;;;;;10318108;28;20200;-79
2022/06/25 17:44:43;;;;;;;2.83;2.50;;;28.30;1.00;;;;;;10317590;28;20229;-77
2022/06/25 17:50:09;;;;;;;2.90;2.55;;;28.30;1.00;;;;;;10317696;28;20277;-78
2022/06/25 17:55:31;;;;;;;3.58;2.63;;;28.30;1.00;;;;;;10317360;28;20202;-78
2022/06/25 18:00:52;;;;;;;3.10;2.80;;;28.20;1.00;;;;;;10317506;28;20565;-77
2022/06/25 18:06:14;;;;;;;3.35;2.60;;;28.20;1.00;;;;;;10317009;28;20439;-78
2022/06/25 18:11:36;;;;;;;3.53;2.55;;;28.10;1.00;;;;;;10315760;28;20245;-78
2022/06/25 18:16:57;;;;;;;4.35;2.45;;;27.90;1.00;;;;;;10311293;28;20233;-78
2022/06/25 18:22:22;;;;;;;6.05;2.72;;;27.80;1.00;;;;;;10302663;28;20261;-77
2022/06/25 18:27:43;;;;;;;3.35;2.45;;;27.60;1.00;;;;;;10299081;28;20209;-79
2022/06/25 18:33:05;;;;;;;6.20;3.40;;;27.50;1.00;;;;;;10315432;28;20253;-78
2022/06/25 18:38:27;;;;;;;6.82;2.92;;;27.30;1.00;;;;;;10316020;28;20478;-78
2022/06/25 18:43:49;;;;;;;8.10;2.88;;;27.10;1.00;;;;;;10285106;28;20222;-78
2022/06/25 18:49:10;;;;;;;7.70;2.60;;;26.90;1.00;;;;;;10299066;28;20249;-78
2022/06/25 18:54:31;;;;;;;5.15;2.97;;;26.80;1.00;;;;;;10315684;28;20605;-77
2022/06/25 18:59:53;;;;;;;4.90;2.80;;;26.60;1.00;;;;;;10315339;28;20500;-78
2022/06/25 19:05:15;;;;;;;4.53;2.65;;;26.50;1.00;;;;;;10304000;28;20203;-77
2022/06/25 19:10:37;;;;;;;10.40;3.17;;;26.40;1.00;;;;;;10315094;28;20199;-79
2022/06/25 19:15:58;;;;;;;5.20;3.17;;;26.30;1.00;;;;;;10300471;28;20226;-81
2022/06/25 19:21:21;;;;;;;3.30;3.00;;;26.20;1.00;;;;;;10302157;28;20217;-84
2022/06/25 19:26:42;;;;;;;4.18;3.45;;;26.20;1.00;;;;;;10306353;28;20187;-77
2022/06/25 19:32:04;;;;;;;6.63;3.35;;;26.00;1.00;;;;;;10309280;28;20229;-82
2022/06/25 19:37:25;;;;;;;4.38;3.58;;;25.90;1.00;;;;;;10322652;28;20221;-78
2022/06/25 19:42:50;;;;;;;6.60;4.15;;;25.70;1.00;;;;;;10322333;28;20248;-77
2022/06/25 19:48:11;;;;;;;5.70;3.75;;;25.60;23.20;;;;;;10358770;28;20485;-78
2022/06/25 19:53:32;;;;;;;5.10;3.80;;;25.50;72.60;;;;;;10347651;28;20244;-78
2022/06/25 19:58:54;;;;;;;4.25;3.67;;;25.40;99.90;;;;;;10362290;28;20186;-77
2022/06/25 20:04:15;;;;;;;6.97;3.72;;;25.30;99.90;;;;;;10354092;28;20222;-77
2022/06/25 20:09:37;;;;;;;4.63;3.50;;;25.20;99.90;;;;;;10319709;28;20210;-77
2022/06/25 20:14:59;;;;;;;5.57;3.10;;;;;;;;;;10304272;28;20219;-77
2022/06/25 20:20:20;;;;;;;4.28;3.50;;;25.00;99.90;;;;;;10309726;28;20221;-79
2022/06/25 20:25:42;;;;;;;8.57;3.40;;;24.80;1.00;;;;;;10321024;28;20205;-78
2022/06/25 20:31:04;;;;;;;5.90;3.55;;;24.70;1.00;;;;;;10320598;28;20230;-78
2022/06/25 20:36:26;;;;;;;6.00;3.65;;;24.60;1.00;;;;;;10319439;28;20201;-79
2022/06/25 20:41:48;;;;;;;5.85;3.78;;;24.50;1.00;;;;;;10319525;28;20273;-77
2022/06/25 20:47:10;;;;;;;6.07;3.92;;;24.40;79.10;;;;;;10331925;28;20572;-78
2022/06/25 20:52:33;;;;;;;6.25;4.38;;;24.30;99.90;;;;;;10332193;28;20202;-84
2022/06/25 20:57:54;;;;;;;6.20;4.95;;;24.10;1.00;;;;;;10320242;28;20437;-82
2022/06/25 21:08:56;;;;;;;6.55;4.22;;;23.90;1.00;;;;;;10318237;28;20199;-83
2022/06/25 21:14:18;;;;;;;5.90;4.82;;;24.00;99.90;;;;;;10289194;28;20206;-83
2022/06/25 21:19:43;;;;;;;5.70;4.43;;;23.70;47.20;;;;;;10302027;28;20288;-84
2022/06/25 21:25:05;;;;;;;8.50;5.55;;;23.50;1.00;;;;;;10304671;28;20516;-83
2022/06/25 21:30:26;;;;;;;8.10;5.85;;;23.40;1.00;;;;;;10318692;28;20289;-80
2022/06/25 21:35:48;;;;;;;10.15;5.80;;;23.30;99.90;;;;;;10304185;28;20501;-83
2022/06/25 21:41:09;;;;;;;7.35;6.10;;;23.20;99.90;;;;;;10318577;28;20222;-83
2022/06/25 21:46:32;;;;;;;7.10;5.90;;;23.00;99.90;;;;;;10327661;28;20194;-82
2022/06/25 21:51:54;;;;;;;7.82;6.05;;;22.90;1.00;;;;;;10358387;28;20194;-82
2022/06/25 21:57:16;;;;;;;7.35;5.70;;;22.80;1.00;;;;;;10358007;28;20277;-84
2022/06/25 22:02:37;;;;;;;9.02;5.57;;;22.80;99.90;;;;;;10340526;28;20229;-82
2022/06/25 22:07:59;;;;;;;7.68;5.90;;;22.80;1.00;;;;;;10310276;28;20523;-84
2022/06/25 22:13:21;;;;;;;9.80;6.80;;;22.70;1.00;;;;;;10317673;28;20199;-83
2022/06/25 22:18:43;;;;;;;8.32;6.65;;;22.60;1.00;;;;;;10320155;28;20201;-84
2022/06/25 22:24:05;;;;;;;6.95;5.47;;;22.60;99.90;;;;;;10356854;28;20236;-82
2022/06/25 22:29:27;;;;;;;7.13;5.97;;;22.50;1.00;;;;;;10357005;28;20200;-83
2022/06/25 22:34:48;;;;;;;7.45;6.25;;;22.40;1.00;;;;;;10356646;28;20191;-84
2022/06/25 22:40:35;;;;;;;6.85;5.82;;;22.40;1.00;;;;;;10312117;28;20210;-83
2022/06/25 22:45:56;;;;;;;7.50;5.72;;;22.30;99.90;;;;;;10304480;28;20198;-83
2022/06/25 22:51:18;;;;;;;6.57;5.13;;;22.20;99.90;;;;;;10356105;28;20237;-83
2022/06/25 22:56:40;;;;;;;7.03;5.40;;;22.20;99.90;;;;;;10356077;28;20196;-83
2022/06/25 23:02:01;;;;;;;7.75;5.63;;;22.10;1.00;;;;;;10355507;28;20228;-81
2022/06/25 23:07:22;;;;;;;8.55;5.65;;;22.00;1.00;;;;;;10291991;28;20232;-83
2022/06/25 23:12:45;;;;;;;7.45;5.78;;;22.00;1.00;;;;;;10315427;28;20198;-83
2022/06/25 23:18:07;;;;;;;6.68;5.68;;;21.90;1.00;;;;;;10300248;28;20206;-78
2022/06/25 23:23:31;;;;;;;6.32;5.20;;;21.90;1.00;;;;;;10314994;28;20411;-77
2022/06/25 23:28:53;;;;;;;7.43;5.45;;;21.90;1.00;;;;;;10316665;28;20540;-77
2022/06/25 23:34:15;;;;;;;6.50;5.70;;;21.80;1.00;;;;;;10273563;29;20533;-77
2022/06/25 23:39:37;;;;;;;11.35;5.55;;;21.80;99.90;;;;;;10237182;29;20263;-78
2022/06/25 23:44:58;;;;;;;8.13;4.85;;;21.80;99.90;;;;;;10245365;29;20222;-84
2022/06/25 23:50:19;;;;;;;7.25;5.60;;;21.80;99.90;;;;;;10274792;29;20199;-84
2022/06/25 23:55:41;;;;;;;6.22;4.75;;;21.70;99.90;;;;;;10273761;29;20203;-84
